createdAt,value
2019-01-15T00:01:50.140Z,47.49
2019-01-15T00:04:21.260Z,47.38
2019-01-15T00:07:12.142Z,47.82
2019-01-15T00:10:02.301Z,47.88
2019-01-15T00:12:52.437Z,47.64
2019-01-15T00:15:38.143Z,47.82
2019-01-15T00:18:29.170Z,47.88
2019-01-15T00:21:01.175Z,47.70
2019-01-15T00:23:31.294Z,47.09
2019-01-15T00:26:21.416Z,47.15
2019-01-15T00:28:53.471Z,47.00
2019-01-15T00:31:25.609Z,47.21
2019-01-15T00:34:16.870Z,47.03
2019-01-15T00:37:07.837Z,46.47
2019-01-15T00:39:41.488Z,46.62
2019-01-15T00:45:10.298Z,45.94
2019-01-15T00:47:41.452Z,45.85
2019-01-15T00:50:35.523Z,45.94
2019-01-15T00:56:28.285Z,45.08
2019-01-15T00:59:00.344Z,44.92
2019-01-15T01:01:50.440Z,45.54
2019-01-15T01:04:21.576Z,45.28
2019-01-15T01:06:53.560Z,45.48
2019-01-15T01:10:15.970Z,45.82
2019-01-15T01:12:36.661Z,45.74
2019-01-15T01:15:10.010Z,45.83
2019-01-15T01:17:41.158Z,45.93
2019-01-15T01:23:18.653Z,45.33
2019-01-15T01:25:49.866Z,45.59
2019-01-15T01:28:20.995Z,45.44
2019-01-15T01:30:52.091Z,45.30
2019-01-15T01:33:24.316Z,45.67
2019-01-15T01:35:55.474Z,45.66
2019-01-15T01:38:26.594Z,45.29
2019-01-15T01:43:41.280Z,45.63
2019-01-15T01:46:12.540Z,46.31
2019-01-15T01:51:59.878Z,46.74
2019-01-15T01:54:30.986Z,47.13
2019-01-15T01:57:04.308Z,47.25
2019-01-15T01:59:55.200Z,47.12
2019-01-15T02:02:45.329Z,47.11
2019-01-15T02:05:16.451Z,47.23
2019-01-15T02:07:48.442Z,46.85
2019-01-15T02:10:39.448Z,46.01
2019-01-15T02:13:11.441Z,46.03
2019-01-15T02:15:42.531Z,46.40
2019-01-15T02:18:32.674Z,45.71
2019-01-15T02:21:04.636Z,45.83
2019-01-15T02:23:35.773Z,45.75
2019-01-15T02:26:26.683Z,46.13
2019-01-15T02:28:57.781Z,46.42
2019-01-15T02:31:28.951Z,46.40
2019-01-15T02:34:01.202Z,47.17
2019-01-15T02:36:32.293Z,47.17
2019-01-15T02:39:22.408Z,47.10
2019-01-15T02:41:53.632Z,46.64
2019-01-15T02:44:24.753Z,46.90
2019-01-15T02:50:04.690Z,47.08
2019-01-15T02:52:35.789Z,47.52
2019-01-15T02:55:26.775Z,47.59
2019-01-15T02:57:57.878Z,47.38
2019-01-15T03:00:29.842Z,47.19
2019-01-15T03:03:19.904Z,47.32
2019-01-15T03:08:53.289Z,48.02
2019-01-15T03:11:24.482Z,48.13
2019-01-15T03:13:55.601Z,48.41
2019-01-15T03:16:45.686Z,48.70
2019-01-15T03:19:17.726Z,48.90
2019-01-15T03:21:48.888Z,48.22
2019-01-15T03:24:39.840Z,48.31
2019-01-15T03:27:11.017Z,48.74
2019-01-15T03:30:01.955Z,49.07
2019-01-15T03:32:52.067Z,49.07
2019-01-15T03:35:23.982Z,48.77
2019-01-15T03:37:55.129Z,49.12
2019-01-15T03:40:27.445Z,49.04
2019-01-15T03:43:03.216Z,48.69
2019-01-15T03:45:50.354Z,48.65
2019-01-15T03:48:41.347Z,48.43
2019-01-15T03:54:21.293Z,47.99
2019-01-15T03:57:11.348Z,48.34
2019-01-15T04:00:01.447Z,48.20
2019-01-15T04:02:34.854Z,48.64
2019-01-15T04:11:02.734Z,48.70
2019-01-15T04:13:33.822Z,48.76
2019-01-15T04:16:04.971Z,49.02
2019-01-15T04:18:55.079Z,49.20
2019-01-15T04:21:45.162Z,49.03
2019-01-15T04:24:35.312Z,49.25
2019-01-15T04:27:06.473Z,49.26
2019-01-15T04:29:37.634Z,48.79
2019-01-15T04:32:28.583Z,48.94
2019-01-15T04:35:00.681Z,48.99
2019-01-15T04:37:31.806Z,49.26
2019-01-15T04:40:22.968Z,49.65
2019-01-15T04:42:54.115Z,49.83
2019-01-15T04:45:26.422Z,50.10
2019-01-15T04:47:58.694Z,49.72
2019-01-15T04:50:49.633Z,49.64
2019-01-15T04:53:39.743Z,49.24
2019-01-15T04:56:11.717Z,49.06
2019-01-15T04:58:43.742Z,49.59
2019-01-15T05:01:16.702Z,49.61
2019-01-15T05:03:49.689Z,49.22
2019-01-15T05:06:39.685Z,49.67
2019-01-15T05:09:10.886Z,49.61
2019-01-15T05:11:42.071Z,49.65
2019-01-15T05:14:32.107Z,49.47
2019-01-15T05:17:04.090Z,49.24
2019-01-15T05:19:36.017Z,49.27
2019-01-15T05:22:26.211Z,48.86
2019-01-15T05:24:57.393Z,48.93
2019-01-15T05:30:17.229Z,48.89
2019-01-15T05:33:08.215Z,48.33
2019-01-15T05:35:40.198Z,48.33
2019-01-15T05:38:11.398Z,48.79
2019-01-15T05:41:01.580Z,49.02
2019-01-15T05:44:03.223Z,48.76
2019-01-15T05:47:12.941Z,49.06
2019-01-15T05:49:45.030Z,48.61
2019-01-15T05:52:16.193Z,49.20
2019-01-15T05:55:27.601Z,49.14
2019-01-15T06:00:59.536Z,49.34
2019-01-15T06:03:32.361Z,49.16
2019-01-15T06:06:22.735Z,49.46
2019-01-15T06:08:54.744Z,49.99
2019-01-15T06:11:26.786Z,49.88
2019-01-15T06:14:17.254Z,49.69
2019-01-15T06:16:48.420Z,50.17
2019-01-15T06:19:19.571Z,49.68
2019-01-15T06:22:09.707Z,49.36
2019-01-15T06:24:59.865Z,49.21
2019-01-15T06:27:50.861Z,49.29
2019-01-15T06:30:42.301Z,48.78
2019-01-15T06:33:32.403Z,49.17
2019-01-15T06:39:08.034Z,49.87
2019-01-15T06:41:58.756Z,50.21
2019-01-15T06:44:48.781Z,50.46
2019-01-15T06:47:20.815Z,50.55
2019-01-15T06:49:51.980Z,50.46
2019-01-15T06:52:42.152Z,50.40
2019-01-15T06:55:15.897Z,50.16
2019-01-15T06:57:47.232Z,50.04
2019-01-15T07:00:40.149Z,50.38
2019-01-15T07:03:12.137Z,50.53
2019-01-15T07:05:44.516Z,50.16
2019-01-15T07:08:16.409Z,50.17
2019-01-15T07:10:47.652Z,49.97
2019-01-15T07:13:39.197Z,50.26
2019-01-15T07:16:10.827Z,50.22
2019-01-15T07:18:42.794Z,50.31
2019-01-15T07:21:13.925Z,49.91
2019-01-15T07:23:44.121Z,50.13
2019-01-15T07:26:18.515Z,50.11
2019-01-15T07:28:53.091Z,49.17
2019-01-15T07:31:25.438Z,49.47
2019-01-15T07:33:57.472Z,49.67
2019-01-15T07:36:29.478Z,49.79
2019-01-15T07:39:01.550Z,50.09
2019-01-15T07:41:32.598Z,50.16
2019-01-15T07:44:04.425Z,49.58
2019-01-15T07:46:35.812Z,49.88
2019-01-15T07:49:07.030Z,50.12
2019-01-15T07:51:39.133Z,50.18
2019-01-15T07:54:10.283Z,50.13
2019-01-15T07:56:42.588Z,50.10
2019-01-15T07:59:13.638Z,50.15
2019-01-15T08:01:45.022Z,49.84
2019-01-15T08:04:16.191Z,50.15
2019-01-15T08:06:47.653Z,50.16
2019-01-15T08:09:19.669Z,49.83
2019-01-15T08:11:53.086Z,49.48
2019-01-15T08:14:29.162Z,49.74
2019-01-15T08:17:04.754Z,49.67
2019-01-15T08:19:40.889Z,49.56
2019-01-15T08:22:22.938Z,48.70
2019-01-15T08:24:56.632Z,48.78
2019-01-15T08:27:30.846Z,48.95
2019-01-15T08:30:03.156Z,48.31
2019-01-15T08:32:34.249Z,47.95
2019-01-15T08:35:05.937Z,47.23
2019-01-15T08:37:39.592Z,47.75
2019-01-15T08:40:12.834Z,47.80
2019-01-15T08:42:44.169Z,47.86
2019-01-15T08:45:17.046Z,48.19
2019-01-15T08:47:51.193Z,48.95
2019-01-15T08:50:24.779Z,48.95
2019-01-15T08:52:56.768Z,48.82
2019-01-15T08:55:28.899Z,48.00
2019-01-15T08:58:00.279Z,48.00
2019-01-15T09:00:33.694Z,48.33
2019-01-15T09:03:05.254Z,48.00
2019-01-15T09:05:37.579Z,47.67
2019-01-15T09:08:08.746Z,48.04
2019-01-15T09:10:40.131Z,47.77
2019-01-15T09:13:11.777Z,47.62
2019-01-15T09:15:43.745Z,47.67
2019-01-15T09:18:17.381Z,47.36
2019-01-15T09:20:48.516Z,47.52
2019-01-15T09:23:22.100Z,47.78
2019-01-15T09:25:54.479Z,48.17
2019-01-15T09:28:25.908Z,47.71
2019-01-15T09:30:57.170Z,48.02
2019-01-15T09:33:31.110Z,48.35
2019-01-15T09:36:02.155Z,47.92
2019-01-15T09:38:33.337Z,47.19
2019-01-15T09:41:04.407Z,46.96
2019-01-15T09:43:35.520Z,47.07
2019-01-15T09:46:08.692Z,47.00
2019-01-15T09:48:40.062Z,46.93
2019-01-15T09:51:11.302Z,46.93
2019-01-15T09:53:41.556Z,47.07
2019-01-15T09:56:11.811Z,46.86
2019-01-15T09:58:45.910Z,46.90
2019-01-15T10:01:18.625Z,46.26
2019-01-15T10:03:50.587Z,46.26
2019-01-15T10:06:21.269Z,45.67
2019-01-15T10:08:53.222Z,44.85
2019-01-15T10:11:24.417Z,44.31
2019-01-15T10:13:55.937Z,44.66
2019-01-15T10:16:27.076Z,45.50
2019-01-15T10:18:57.302Z,44.97
2019-01-15T10:21:28.784Z,45.41
2019-01-15T10:24:01.670Z,44.84
2019-01-15T10:26:31.941Z,44.62
2019-01-15T10:29:03.101Z,44.87
2019-01-15T10:32:29.001Z,44.90
2019-01-15T10:35:02.333Z,45.73
2019-01-15T10:37:39.997Z,45.73
2019-01-15T10:40:11.683Z,46.21
2019-01-15T10:42:43.140Z,45.46
2019-01-15T10:45:36.547Z,45.43
2019-01-15T10:48:16.842Z,46.13
2019-01-15T10:50:49.959Z,45.93
2019-01-15T10:53:25.432Z,45.93
2019-01-15T10:55:57.825Z,46.14
2019-01-15T10:58:29.569Z,46.31
2019-01-15T11:01:00.069Z,46.83
2019-01-15T11:03:31.148Z,47.12
2019-01-15T11:06:01.347Z,46.68
2019-01-15T11:08:36.156Z,46.56
2019-01-15T11:11:08.454Z,46.50
2019-01-15T11:13:38.692Z,46.22
2019-01-15T11:16:10.605Z,46.31
2019-01-15T11:18:42.656Z,46.03
2019-01-15T11:21:12.913Z,46.35
2019-01-15T11:23:53.231Z,45.66
2019-01-15T11:26:24.783Z,45.69
2019-01-15T11:28:56.228Z,45.30
2019-01-15T11:31:27.736Z,45.42
2019-01-15T11:34:02.992Z,44.86
2019-01-15T11:36:38.938Z,45.33
2019-01-15T11:39:14.299Z,44.97
2019-01-15T11:41:47.366Z,44.80
2019-01-15T11:44:34.157Z,44.24
2019-01-15T11:47:09.904Z,44.58
2019-01-15T11:49:41.359Z,44.67
2019-01-15T11:52:12.832Z,44.31
2019-01-15T11:54:44.521Z,44.28
2019-01-15T11:57:14.813Z,43.87
2019-01-15T11:59:46.163Z,44.10
2019-01-15T12:02:36.697Z,43.48
2019-01-15T12:05:27.331Z,43.26
2019-01-15T12:08:17.900Z,43.12
2019-01-15T12:11:08.212Z,43.50
2019-01-15T12:14:04.252Z,44.46
2019-01-15T12:17:04.642Z,44.64
2019-01-15T12:19:42.282Z,45.24
2019-01-15T12:22:38.471Z,44.58
2019-01-15T12:25:23.973Z,45.66
2019-01-15T12:28:15.982Z,45.34
2019-01-15T12:31:15.372Z,45.10
2019-01-15T12:34:06.512Z,44.80
2019-01-15T12:36:56.261Z,44.80
2019-01-15T12:40:03.274Z,45.62
2019-01-15T12:43:01.397Z,45.22
2019-01-15T12:45:58.631Z,44.87
2019-01-15T12:48:53.023Z,44.59
2019-01-15T12:51:42.414Z,43.64
2019-01-15T12:54:32.731Z,43.64
2019-01-15T12:57:21.711Z,44.10
2019-01-15T13:00:13.330Z,43.76
2019-01-15T13:03:02.104Z,43.55
2019-01-15T13:05:50.450Z,43.00
2019-01-15T13:08:41.580Z,42.52
2019-01-15T13:11:29.373Z,43.02
2019-01-15T13:14:18.816Z,42.96
2019-01-15T13:17:12.258Z,42.89
2019-01-15T13:20:20.681Z,42.58
2019-01-15T13:23:14.343Z,43.21
2019-01-15T13:26:19.671Z,42.85
2019-01-15T13:29:10.816Z,43.51
2019-01-15T13:32:06.147Z,43.19
2019-01-15T13:34:50.987Z,43.05
2019-01-15T13:37:43.873Z,43.80
2019-01-15T13:40:36.722Z,43.90
2019-01-15T13:43:33.953Z,44.11
2019-01-15T13:46:21.371Z,44.19
2019-01-15T13:49:16.425Z,44.56
2019-01-15T13:52:18.549Z,44.51
2019-01-15T13:55:11.675Z,43.99
2019-01-15T13:58:08.397Z,44.47
2019-01-15T14:01:11.107Z,44.83
2019-01-15T14:04:04.570Z,44.47
2019-01-15T14:07:09.335Z,44.17
2019-01-15T14:10:09.469Z,44.36
2019-01-15T14:13:00.512Z,43.49
2019-01-15T14:16:02.271Z,42.59
2019-01-15T14:19:00.466Z,42.56
2019-01-15T14:21:56.511Z,42.67
2019-01-15T14:24:58.313Z,42.08
2019-01-15T14:28:05.818Z,40.46
2019-01-15T14:31:07.588Z,40.46
2019-01-15T14:33:57.481Z,40.10
2019-01-15T14:37:03.823Z,40.05
2019-01-15T14:39:55.872Z,40.53
2019-01-15T14:43:06.210Z,40.57
2019-01-15T14:46:18.232Z,40.47
2019-01-15T14:49:26.562Z,41.02
2019-01-15T14:52:20.449Z,40.24
2019-01-15T14:55:31.823Z,40.32
2019-01-15T14:58:23.587Z,40.62
2019-01-15T15:01:15.538Z,41.04
2019-01-15T15:04:05.146Z,41.54
2019-01-15T15:07:02.291Z,41.14
2019-01-15T15:10:04.692Z,41.34
2019-01-15T15:13:13.101Z,41.43
2019-01-15T15:16:12.139Z,41.31
2019-01-15T15:19:11.673Z,41.02
2019-01-15T15:22:07.292Z,40.53
2019-01-15T15:25:13.484Z,40.67
2019-01-15T15:28:05.544Z,41.08
2019-01-15T15:31:11.812Z,41.39
2019-01-15T15:33:53.839Z,42.37
2019-01-15T15:36:45.189Z,41.95
2019-01-15T15:39:26.717Z,42.12
2019-01-15T15:42:36.625Z,41.76
2019-01-15T15:45:32.355Z,42.76
2019-01-15T15:48:22.729Z,43.62
2019-01-15T15:51:27.632Z,43.77
2019-01-15T15:54:16.434Z,44.08
2019-01-15T15:57:07.997Z,43.79
2019-01-15T16:00:19.391Z,44.20
2019-01-15T16:03:10.043Z,44.54
2019-01-15T16:06:01.957Z,45.30
2019-01-15T16:08:56.154Z,45.60
2019-01-15T16:11:49.971Z,45.41
2019-01-15T16:14:39.897Z,45.31
2019-01-15T16:17:29.164Z,45.34
2019-01-15T16:20:31.139Z,45.44
2019-01-15T16:23:22.230Z,45.27
2019-01-15T16:26:22.279Z,45.31
2019-01-15T16:29:23.097Z,46.42
2019-01-15T16:32:14.019Z,46.42
2019-01-15T16:35:04.210Z,46.33
2019-01-15T16:37:53.309Z,46.32
2019-01-15T16:40:54.959Z,46.09
2019-01-15T16:43:43.667Z,45.66
2019-01-15T16:46:31.702Z,45.70
2019-01-15T16:49:31.139Z,45.75
2019-01-15T16:52:35.160Z,45.70
2019-01-15T16:55:27.257Z,46.21
2019-01-15T16:58:29.388Z,46.45
2019-01-15T17:01:22.515Z,45.95
2019-01-15T17:04:03.255Z,46.25
2019-01-15T17:07:06.162Z,46.24
2019-01-15T17:10:01.472Z,46.24
2019-01-15T17:13:04.602Z,46.52
2019-01-15T17:16:17.576Z,46.20
2019-01-15T17:19:26.629Z,47.10
2019-01-15T17:22:13.393Z,47.10
2019-01-15T17:25:01.719Z,46.92
2019-01-15T17:27:56.170Z,47.49
2019-01-15T17:30:48.699Z,47.58
2019-01-15T17:33:32.401Z,47.50
2019-01-15T17:36:19.945Z,47.36
2019-01-15T17:39:08.784Z,47.71
2019-01-15T17:41:58.144Z,47.42
2019-01-15T17:44:47.932Z,47.21
2019-01-15T17:47:38.773Z,47.40
2019-01-15T17:50:31.731Z,47.81
2019-01-15T17:53:20.884Z,47.74
2019-01-15T17:56:25.437Z,47.46
2019-01-15T17:59:26.315Z,47.46
2019-01-15T18:02:27.526Z,47.54
2019-01-15T18:05:14.879Z,47.65
2019-01-15T18:08:04.235Z,47.18
2019-01-15T18:11:02.315Z,46.46
2019-01-15T18:13:51.965Z,46.70
2019-01-15T18:16:48.560Z,46.37
2019-01-15T18:19:36.391Z,46.68
2019-01-15T18:22:16.538Z,46.49
2019-01-15T18:25:13.343Z,47.05
2019-01-15T18:27:53.659Z,47.13
2019-01-15T18:30:41.157Z,47.18
2019-01-15T18:33:44.908Z,47.21
2019-01-15T18:36:37.040Z,47.47
2019-01-15T18:39:43.607Z,47.68
2019-01-15T18:42:36.324Z,47.79
2019-01-15T18:45:24.617Z,47.76
2019-01-15T18:48:14.834Z,47.76
2019-01-15T18:51:10.600Z,47.37
2019-01-15T18:54:05.971Z,47.61
2019-01-15T18:56:55.038Z,48.14
2019-01-15T18:59:47.878Z,48.38
2019-01-15T19:02:39.146Z,47.87
2019-01-15T19:05:35.163Z,47.72
2019-01-15T19:08:24.952Z,48.02
2019-01-15T19:11:15.883Z,47.80
2019-01-15T19:14:17.688Z,47.83
2019-01-15T19:17:07.554Z,48.15
2019-01-15T19:19:57.411Z,48.14
2019-01-15T19:22:49.776Z,48.33
2019-01-15T19:25:35.275Z,49.07
2019-01-15T19:28:37.094Z,49.06
2019-01-15T19:31:27.215Z,49.15
2019-01-15T19:34:21.883Z,49.36
2019-01-15T19:37:04.802Z,49.33
2019-01-15T19:39:48.333Z,49.37
2019-01-15T19:42:43.908Z,48.97
2019-01-15T19:45:49.034Z,48.56
2019-01-15T19:48:37.009Z,48.42
2019-01-15T19:51:37.309Z,48.98
2019-01-15T19:54:20.042Z,49.63
2019-01-15T19:57:24.589Z,49.99
2019-01-15T20:00:23.354Z,49.47
2019-01-15T20:03:13.555Z,49.67
2019-01-15T20:06:15.214Z,48.61
2019-01-15T20:09:06.237Z,48.76
2019-01-15T20:12:16.385Z,49.55
2019-01-15T20:15:05.651Z,49.99
2019-01-15T20:18:06.113Z,50.57
2019-01-15T20:21:01.670Z,50.05
2019-01-15T20:23:49.877Z,49.85
2019-01-15T20:26:39.242Z,49.66
2019-01-15T20:29:30.087Z,49.87
2019-01-15T20:32:31.181Z,49.79
2019-01-15T20:35:20.163Z,49.44
2019-01-15T20:38:12.964Z,50.06
2019-01-15T20:41:16.178Z,49.97
2019-01-15T20:44:10.079Z,49.60
2019-01-15T20:47:09.474Z,49.66
2019-01-15T20:50:05.222Z,49.79
2019-01-15T20:52:49.164Z,49.86
2019-01-15T20:55:38.379Z,49.56
2019-01-15T20:58:39.199Z,49.40
2019-01-15T21:01:37.413Z,49.49
2019-01-15T21:04:35.105Z,50.17
2019-01-15T21:07:17.781Z,50.01
2019-01-15T21:10:09.807Z,49.34
2019-01-15T21:12:59.251Z,48.95
2019-01-15T21:15:48.301Z,48.65
2019-01-15T21:18:40.463Z,48.32
2019-01-15T21:21:25.515Z,48.41
2019-01-15T21:24:14.859Z,47.95
2019-01-15T21:27:13.527Z,47.94
2019-01-15T21:30:03.167Z,48.12
2019-01-15T21:33:03.498Z,48.02
2019-01-15T21:35:52.385Z,47.68
2019-01-15T21:38:46.424Z,48.17
2019-01-15T21:41:36.229Z,48.14
2019-01-15T21:44:28.878Z,48.09
2019-01-15T21:47:20.118Z,48.20
2019-01-15T21:50:06.897Z,48.01
2019-01-15T21:53:03.843Z,47.77
2019-01-15T21:56:01.287Z,47.50
2019-01-15T21:58:50.691Z,48.12
2019-01-15T22:01:38.921Z,48.44
2019-01-15T22:04:38.242Z,48.44
2019-01-15T22:07:27.256Z,48.65
2019-01-15T22:10:17.691Z,48.52
2019-01-15T22:13:07.567Z,47.83
2019-01-15T22:16:02.585Z,48.18
2019-01-15T22:18:48.647Z,48.89
2019-01-15T22:21:44.619Z,48.81
2019-01-15T22:24:35.499Z,48.45
2019-01-15T22:27:40.228Z,47.88
2019-01-15T22:30:38.901Z,47.98
2019-01-15T22:33:38.193Z,47.95
2019-01-15T22:36:26.392Z,47.76
2019-01-15T22:39:19.606Z,47.78
2019-01-15T22:42:00.574Z,47.73
2019-01-15T22:44:47.031Z,47.54
2019-01-15T22:47:30.220Z,47.37
2019-01-15T22:50:39.076Z,47.68
2019-01-15T22:53:27.477Z,47.68
2019-01-15T22:56:21.447Z,47.76
2019-01-15T22:59:14.147Z,47.86
2019-01-15T23:01:59.205Z,48.29
2019-01-15T23:04:48.221Z,48.45
2019-01-15T23:07:38.549Z,48.79
2019-01-15T23:10:34.960Z,48.25
2019-01-15T23:13:28.948Z,48.38
2019-01-15T23:16:26.236Z,48.31
2019-01-15T23:19:25.460Z,48.97
2019-01-15T23:22:04.235Z,49.14
2019-01-15T23:25:00.280Z,49.01
2019-01-15T23:27:53.267Z,48.95
2019-01-15T23:30:48.939Z,49.08
2019-01-15T23:33:37.246Z,49.18
2019-01-15T23:36:33.542Z,48.72
2019-01-15T23:39:32.726Z,48.65
2019-01-15T23:42:23.246Z,48.93
2019-01-15T23:45:09.407Z,48.83
2019-01-15T23:47:52.485Z,49.10
2019-01-15T23:50:45.440Z,49.17
2019-01-15T23:53:42.671Z,49.16
2019-01-15T23:56:32.806Z,49.93
2019-01-15T23:59:18.322Z,50.53
